createdAt,value
2018-09-23T00:00:46.556Z,46178.65
2018-09-23T00:02:51.445Z,46170.91
2018-09-23T00:04:56.453Z,46186.39
2018-09-23T00:07:01.246Z,46185.43
2018-09-23T00:09:07.914Z,46186.39
2018-09-23T00:11:12.987Z,46178.65
2018-09-23T00:13:18.018Z,46180.59
2018-09-23T00:15:22.987Z,46179.62
2018-09-23T00:17:28.066Z,46191.23
2018-09-23T00:19:33.210Z,46168.01
2018-09-23T00:21:38.163Z,46180.59
2018-09-23T00:23:43.106Z,46185.43
2018-09-23T00:25:47.827Z,46163.17
2018-09-23T00:27:58.466Z,46182.52
2018-09-23T00:30:03.448Z,46177.68
2018-09-23T00:32:08.317Z,46177.68
2018-09-23T00:34:13.200Z,46181.55
2018-09-23T00:36:18.176Z,46183.49
2018-09-23T00:38:23.033Z,46158.33
2018-09-23T00:40:27.859Z,46194.13
2018-09-23T00:42:32.652Z,46178.65
2018-09-23T00:44:37.469Z,46192.20
2018-09-23T00:46:42.432Z,46173.81
2018-09-23T00:48:47.422Z,46175.75
2018-09-23T00:50:52.352Z,46167.04
2018-09-23T00:52:57.156Z,46186.39
2018-09-23T00:55:02.400Z,46186.39
2018-09-23T00:57:07.131Z,46183.49
2018-09-23T00:59:12.054Z,46175.75
2018-09-23T01:01:16.932Z,46164.14
2018-09-23T01:03:21.743Z,46169.94
2018-09-23T01:05:26.679Z,46182.52
2018-09-23T01:07:31.438Z,46176.71
2018-09-23T01:09:36.292Z,46188.33
2018-09-23T01:11:41.073Z,46174.78
2018-09-23T01:13:46.042Z,46170.91
2018-09-23T01:15:50.876Z,46176.71
2018-09-23T01:17:55.812Z,46170.91
2018-09-23T01:20:00.770Z,46176.71
2018-09-23T01:22:06.022Z,46166.07
2018-09-23T01:24:10.859Z,46182.52
2018-09-23T01:26:15.817Z,46190.27
2018-09-23T01:28:20.674Z,46176.71
2018-09-23T01:30:25.588Z,46175.75
2018-09-23T01:32:30.370Z,46174.78
2018-09-23T01:34:35.234Z,46180.59
2018-09-23T01:36:40.207Z,46161.23
2018-09-23T01:38:45.163Z,46157.36
2018-09-23T01:40:49.879Z,46177.68
2018-09-23T01:42:54.718Z,46180.59
2018-09-23T01:44:59.638Z,46168.97
2018-09-23T01:47:04.491Z,46190.27
2018-09-23T01:49:09.318Z,46193.17
2018-09-23T01:51:14.122Z,46168.97
2018-09-23T01:53:18.927Z,46178.65
2018-09-23T01:55:24.056Z,46184.46
2018-09-23T01:57:29.171Z,46185.43
2018-09-23T01:59:33.893Z,46168.97
2018-09-23T02:01:38.939Z,46171.87
2018-09-23T02:03:43.747Z,46168.01
2018-09-23T02:05:48.510Z,46176.71
2018-09-23T02:07:53.320Z,46172.84
2018-09-23T02:09:58.142Z,46179.62
2018-09-23T02:12:02.891Z,46186.39
2018-09-23T02:14:07.611Z,46183.49
2018-09-23T02:16:12.335Z,46194.13
2018-09-23T02:18:17.524Z,46186.39
2018-09-23T02:20:22.665Z,46199.94
2018-09-23T02:22:27.682Z,46172.84
2018-09-23T02:24:32.380Z,46180.59
2018-09-23T02:26:37.197Z,46185.43
2018-09-23T02:28:42.106Z,46162.20
2018-09-23T02:30:47.128Z,46161.23
2018-09-23T02:32:51.906Z,46187.36
2018-09-23T02:34:56.711Z,46164.14
2018-09-23T02:37:01.686Z,46192.20
2018-09-23T02:39:11.387Z,46188.33
2018-09-23T02:41:16.240Z,46165.10
2018-09-23T02:43:21.032Z,46172.84
2018-09-23T02:45:25.895Z,46183.49
2018-09-23T02:47:30.706Z,46183.49
2018-09-23T02:49:35.599Z,46173.81
2018-09-23T02:51:40.483Z,46172.84
2018-09-23T02:53:45.277Z,46191.23
2018-09-23T02:55:50.096Z,46156.39
2018-09-23T02:57:54.984Z,46186.39
2018-09-23T03:00:00.190Z,46190.27
2018-09-23T03:02:05.406Z,46176.71
2018-09-23T03:04:10.122Z,46199.94
2018-09-23T03:06:15.124Z,46184.46
2018-09-23T03:08:19.968Z,46176.71
2018-09-23T03:10:24.775Z,46196.07
2018-09-23T03:12:29.590Z,46200.91
2018-09-23T03:14:34.405Z,46191.23
2018-09-23T03:16:39.603Z,46171.87
2018-09-23T03:18:44.381Z,46177.68
2018-09-23T03:20:49.145Z,46186.39
2018-09-23T03:22:53.934Z,46187.36
2018-09-23T03:24:58.956Z,46170.91
2018-09-23T03:27:04.013Z,46173.81
2018-09-23T03:29:08.804Z,46165.10
2018-09-23T03:31:13.637Z,46191.23
2018-09-23T03:33:18.627Z,46183.49
2018-09-23T03:35:24.782Z,46197.04
2018-09-23T03:37:29.654Z,46150.59
2018-09-23T03:39:34.429Z,46173.81
2018-09-23T03:41:39.151Z,46170.91
2018-09-23T03:43:44.231Z,46178.65
2018-09-23T03:45:49.138Z,46188.33
2018-09-23T03:47:54.109Z,46187.36
2018-09-23T03:49:59.119Z,46168.01
2018-09-23T03:52:04.065Z,46168.01
2018-09-23T03:54:11.757Z,46177.68
2018-09-23T03:56:16.727Z,46174.78
2018-09-23T03:58:21.515Z,46185.43
2018-09-23T04:00:26.356Z,46180.59
2018-09-23T04:02:31.159Z,46183.49
2018-09-23T04:04:36.137Z,46184.46
2018-09-23T04:06:40.993Z,46157.36
2018-09-23T04:08:45.947Z,46184.46
2018-09-23T04:10:50.769Z,46184.46
2018-09-23T04:12:55.630Z,46164.14
2018-09-23T04:15:00.514Z,46167.04
2018-09-23T04:17:05.554Z,46178.65
2018-09-23T04:19:10.707Z,46175.75
2018-09-23T04:21:15.809Z,46216.39
2018-09-23T04:23:20.723Z,46170.91
2018-09-23T04:25:25.745Z,46187.36
2018-09-23T04:27:30.613Z,46175.75
2018-09-23T04:29:35.684Z,46193.17
2018-09-23T04:31:40.493Z,46179.62
2018-09-23T04:33:45.364Z,46166.07
2018-09-23T04:35:50.192Z,46179.62
2018-09-23T04:37:55.111Z,46190.27
2018-09-23T04:39:59.912Z,46194.13
2018-09-23T04:42:04.776Z,46178.65
2018-09-23T04:44:09.495Z,46193.17
2018-09-23T04:46:14.373Z,46194.13
2018-09-23T04:48:19.185Z,46188.33
2018-09-23T04:50:24.902Z,46184.46
2018-09-23T04:52:29.891Z,46180.59
2018-09-23T04:54:34.793Z,46176.71
2018-09-23T04:56:39.766Z,46174.78
2018-09-23T04:58:44.903Z,46175.75
2018-09-23T05:00:50.151Z,46181.55
2018-09-23T05:02:55.183Z,46176.71
2018-09-23T05:05:00.351Z,46148.65
2018-09-23T05:07:05.681Z,46190.27
2018-09-23T05:09:11.293Z,46176.71
2018-09-23T05:11:16.635Z,46182.52
2018-09-23T05:13:21.615Z,46177.68
2018-09-23T05:15:26.917Z,46168.01
2018-09-23T05:17:31.763Z,46187.36
2018-09-23T05:19:37.248Z,46194.13
2018-09-23T05:21:42.312Z,46188.33
2018-09-23T05:23:47.307Z,46189.30
2018-09-23T05:25:52.209Z,46200.91
2018-09-23T05:27:57.292Z,46190.27
2018-09-23T05:30:02.622Z,46192.20
2018-09-23T05:32:10.531Z,46068.33
2018-09-23T05:34:15.418Z,46166.07
2018-09-23T05:36:20.519Z,46187.36
2018-09-23T05:38:26.330Z,46198.97
2018-09-23T05:40:31.126Z,46182.52
2018-09-23T05:42:36.077Z,46174.78
2018-09-23T05:44:41.097Z,46193.17
2018-09-23T05:46:46.208Z,46193.17
2018-09-23T05:48:51.218Z,46201.88
2018-09-23T05:50:57.334Z,46178.65
2018-09-23T05:53:02.407Z,46191.23
2018-09-23T05:55:07.317Z,46182.52
2018-09-23T05:57:12.410Z,46215.43
2018-09-23T05:59:17.731Z,46199.94
2018-09-23T06:01:22.652Z,46178.65
2018-09-23T06:03:29.515Z,46174.78
2018-09-23T06:05:35.073Z,46175.75
2018-09-23T06:07:40.519Z,46185.43
2018-09-23T06:09:46.486Z,46185.43
2018-09-23T06:11:51.675Z,46176.71
2018-09-23T06:13:56.449Z,46180.59
2018-09-23T06:16:01.522Z,46190.27
2018-09-23T06:18:06.569Z,46196.07
2018-09-23T06:20:13.338Z,46191.23
2018-09-23T06:22:18.244Z,46180.59
2018-09-23T06:24:23.142Z,46191.23
2018-09-23T06:26:28.579Z,46188.33
2018-09-23T06:28:34.075Z,46188.33
2018-09-23T06:30:39.847Z,46174.78
2018-09-23T06:32:45.484Z,46178.65
2018-09-23T06:34:50.444Z,46188.33
2018-09-23T06:36:55.453Z,46163.17
2018-09-23T06:39:00.597Z,46185.43
2018-09-23T06:41:05.564Z,46198.00
2018-09-23T06:43:10.394Z,46172.84
2018-09-23T06:45:15.239Z,46200.91
2018-09-23T06:47:20.032Z,46206.71
2018-09-23T06:49:24.836Z,46172.84
2018-09-23T06:51:30.010Z,46187.36
2018-09-23T06:53:35.069Z,46169.94
2018-09-23T06:55:40.188Z,46172.84
2018-09-23T06:57:45.045Z,46193.17
2018-09-23T06:59:49.915Z,46183.49
2018-09-23T07:01:55.048Z,46198.00
2018-09-23T07:03:59.970Z,46195.10
2018-09-23T07:06:05.109Z,46185.43
2018-09-23T07:08:09.912Z,46194.13
2018-09-23T07:10:15.192Z,46198.97
2018-09-23T07:12:20.130Z,46124.46
2018-09-23T07:14:26.048Z,46213.49
2018-09-23T07:16:30.976Z,46200.91
2018-09-23T07:18:35.947Z,46193.17
2018-09-23T07:20:40.740Z,46202.84
2018-09-23T07:22:45.700Z,46211.55
2018-09-23T07:24:50.926Z,46192.20
2018-09-23T07:26:55.958Z,46189.30
2018-09-23T07:29:00.673Z,46193.17
2018-09-23T07:31:05.466Z,46208.65
2018-09-23T07:33:10.304Z,46208.65
2018-09-23T07:35:15.270Z,46199.94
2018-09-23T07:37:20.051Z,46212.52
2018-09-23T07:39:25.204Z,46204.78
2018-09-23T07:41:30.144Z,46198.00
2018-09-23T07:43:34.966Z,46205.75
2018-09-23T07:45:39.940Z,46209.62
2018-09-23T07:47:45.156Z,46223.17
2018-09-23T07:49:49.915Z,46201.88
2018-09-23T07:51:55.159Z,46214.46
2018-09-23T07:54:00.988Z,46222.20
2018-09-23T07:56:05.782Z,46217.36
2018-09-23T07:58:10.583Z,46215.43
2018-09-23T08:00:15.447Z,46227.04
2018-09-23T08:02:20.216Z,46181.55
2018-09-23T08:04:24.962Z,46214.46
2018-09-23T08:06:29.772Z,46200.91
2018-09-23T08:08:34.495Z,46228.01
2018-09-23T08:10:39.419Z,46191.23
2018-09-23T08:12:44.319Z,46206.71
2018-09-23T08:14:49.429Z,46212.52
2018-09-23T08:16:54.105Z,46200.91
2018-09-23T08:18:59.066Z,46212.52
2018-09-23T08:21:04.157Z,46212.52
2018-09-23T08:23:09.299Z,46228.01
2018-09-23T08:25:14.321Z,46205.75
2018-09-23T08:27:19.115Z,46228.97
2018-09-23T08:29:23.890Z,46222.20
2018-09-23T08:31:28.755Z,46257.04
2018-09-23T08:33:33.552Z,46201.88
2018-09-23T08:35:38.376Z,46224.13
2018-09-23T08:37:43.267Z,46206.71
2018-09-23T08:39:48.100Z,46224.13
2018-09-23T08:41:52.881Z,46234.78
2018-09-23T08:43:57.774Z,46230.91
2018-09-23T08:46:04.911Z,46206.71
2018-09-23T08:48:09.849Z,46221.23
2018-09-23T08:50:19.035Z,46213.49
2018-09-23T08:52:24.133Z,46236.71
2018-09-23T08:54:29.155Z,46235.75
2018-09-23T08:56:33.962Z,46203.81
2018-09-23T08:58:38.832Z,46222.20
2018-09-23T09:00:43.681Z,46222.20
2018-09-23T09:02:48.474Z,46239.62
2018-09-23T09:04:53.205Z,46228.01
2018-09-23T09:06:58.128Z,46245.43
2018-09-23T09:09:03.197Z,46218.33
2018-09-23T09:11:08.027Z,46228.01
2018-09-23T09:13:12.946Z,46228.01
2018-09-23T09:15:17.993Z,46234.78
2018-09-23T09:17:22.810Z,46220.26
2018-09-23T09:19:27.679Z,46225.10
2018-09-23T09:21:32.462Z,46229.94
2018-09-23T09:23:37.414Z,46222.20
2018-09-23T09:25:42.539Z,46217.36
2018-09-23T09:27:47.711Z,46221.23
2018-09-23T09:29:52.692Z,46224.13
2018-09-23T09:31:57.546Z,46217.36
2018-09-23T09:34:02.323Z,46222.20
2018-09-23T09:36:07.409Z,46217.36
2018-09-23T09:38:12.700Z,46219.30
2018-09-23T09:40:17.537Z,46239.62
2018-09-23T09:42:22.410Z,46210.59
2018-09-23T09:44:27.405Z,46228.01
2018-09-23T09:46:32.371Z,46233.81
2018-09-23T09:48:37.325Z,46241.55
2018-09-23T09:50:42.283Z,46224.13
2018-09-23T09:52:47.331Z,46216.39
2018-09-23T09:54:52.373Z,46227.04
2018-09-23T09:56:57.325Z,46219.30
2018-09-23T09:59:02.489Z,46228.01
2018-09-23T10:01:07.367Z,46228.97
2018-09-23T10:03:12.212Z,46198.97
2018-09-23T10:05:17.143Z,46227.04
2018-09-23T10:07:22.222Z,46223.17
2018-09-23T10:09:27.343Z,46229.94
2018-09-23T10:11:32.342Z,46214.46
2018-09-23T10:13:37.425Z,46221.23
2018-09-23T10:15:42.312Z,46210.59
2018-09-23T10:17:47.609Z,46218.33
2018-09-23T10:19:52.375Z,46225.10
2018-09-23T10:21:57.413Z,46225.10
2018-09-23T10:24:02.605Z,46230.91
2018-09-23T10:26:07.339Z,46230.91
2018-09-23T10:28:12.385Z,46219.30
2018-09-23T10:30:17.391Z,46216.39
2018-09-23T10:32:22.329Z,46210.59
2018-09-23T10:34:27.266Z,46208.65
2018-09-23T10:36:32.311Z,46214.46
2018-09-23T10:38:37.547Z,46202.84
2018-09-23T10:40:42.745Z,46212.52
2018-09-23T10:42:47.952Z,46211.55
2018-09-23T10:44:52.816Z,46206.71
2018-09-23T10:46:59.221Z,46217.36
2018-09-23T10:49:04.525Z,46202.84
2018-09-23T10:51:09.896Z,46208.65
2018-09-23T10:53:15.611Z,46209.62
2018-09-23T10:55:20.755Z,46198.97
2018-09-23T10:57:26.162Z,46198.97
2018-09-23T10:59:31.104Z,46207.68
2018-09-23T11:01:36.106Z,46198.97
2018-09-23T11:03:41.077Z,46197.04
2018-09-23T11:05:45.970Z,46191.23
2018-09-23T11:07:51.243Z,46170.91
2018-09-23T11:09:56.574Z,46175.75
2018-09-23T11:12:01.721Z,46188.33
2018-09-23T11:14:06.772Z,46194.13
2018-09-23T11:16:12.143Z,46210.59
2018-09-23T11:18:17.174Z,46197.04
2018-09-23T11:20:22.659Z,46188.33
2018-09-23T11:22:27.636Z,46198.97
2018-09-23T11:24:32.429Z,46206.71
2018-09-23T11:26:37.471Z,46208.65
2018-09-23T11:28:42.257Z,46177.68
2018-09-23T11:30:47.212Z,46198.00
2018-09-23T11:32:52.274Z,46190.27
2018-09-23T11:34:57.423Z,46199.94
2018-09-23T11:37:02.342Z,46200.91
2018-09-23T11:39:14.038Z,46207.68
2018-09-23T11:41:18.882Z,46197.04
2018-09-23T11:43:23.854Z,46198.00
2018-09-23T11:45:28.917Z,46200.91
2018-09-23T11:47:35.212Z,46216.39
2018-09-23T11:49:40.193Z,46204.78
2018-09-23T11:51:45.122Z,46196.07
2018-09-23T11:53:50.092Z,46211.55
2018-09-23T11:55:55.043Z,46193.17
2018-09-23T11:58:00.181Z,46212.52
2018-09-23T12:00:06.860Z,46211.55
2018-09-23T12:02:12.001Z,46188.33
2018-09-23T12:04:17.032Z,46197.04
2018-09-23T12:06:22.036Z,46185.43
2018-09-23T12:08:26.911Z,46197.04
2018-09-23T12:10:31.973Z,46195.10
2018-09-23T12:12:36.870Z,46187.36
2018-09-23T12:14:41.797Z,46179.62
2018-09-23T12:16:47.252Z,46188.33
2018-09-23T12:18:52.166Z,46186.39
2018-09-23T12:20:57.183Z,46173.81
2018-09-23T12:23:02.088Z,46183.49
2018-09-23T12:25:07.184Z,46178.65
2018-09-23T12:27:12.733Z,46183.49
2018-09-23T12:29:17.669Z,46160.27
2018-09-23T12:31:22.708Z,46177.68
2018-09-23T12:33:27.680Z,46198.00
2018-09-23T12:35:33.297Z,46183.49
2018-09-23T12:37:38.350Z,46186.39
2018-09-23T12:39:43.361Z,46168.97
2018-09-23T12:41:48.554Z,46175.75
2018-09-23T12:43:53.668Z,46167.04
2018-09-23T12:45:58.947Z,46207.68
2018-09-23T12:48:03.884Z,46180.59
2018-09-23T12:50:08.796Z,46161.23
2018-09-23T12:52:13.612Z,46177.68
2018-09-23T12:54:18.593Z,46188.33
2018-09-23T12:56:23.572Z,46190.27
2018-09-23T12:58:28.344Z,46166.07
2018-09-23T13:00:33.229Z,46172.84
2018-09-23T13:02:38.375Z,46183.49
2018-09-23T13:04:43.315Z,46162.20
2018-09-23T13:06:48.403Z,46184.46
2018-09-23T13:08:54.046Z,46169.94
2018-09-23T13:10:59.000Z,46173.81
2018-09-23T13:13:03.900Z,46155.43
2018-09-23T13:15:08.919Z,46173.81
2018-09-23T13:17:13.788Z,46167.04
2018-09-23T13:19:18.651Z,46161.23
2018-09-23T13:21:23.599Z,46153.49
2018-09-23T13:23:28.611Z,46175.75
2018-09-23T13:25:33.559Z,46167.04
2018-09-23T13:27:38.455Z,46163.17
2018-09-23T13:29:43.335Z,46171.87
2018-09-23T13:31:48.422Z,46185.43
2018-09-23T13:33:53.324Z,46175.75
2018-09-23T13:35:58.245Z,46189.30
2018-09-23T13:38:03.417Z,46171.87
2018-09-23T13:40:08.567Z,46156.39
2018-09-23T13:42:13.635Z,46178.65
2018-09-23T13:44:18.572Z,46182.52
2018-09-23T13:46:23.301Z,46176.71
2018-09-23T13:48:28.256Z,46177.68
2018-09-23T13:50:33.241Z,46160.27
2018-09-23T13:52:38.280Z,46160.27
2018-09-23T13:54:43.472Z,46209.62
2018-09-23T13:56:48.355Z,46171.87
2018-09-23T13:58:53.296Z,46188.33
2018-09-23T14:00:58.569Z,46165.10
2018-09-23T14:03:03.488Z,46190.27
2018-09-23T14:05:08.526Z,46189.30
2018-09-23T14:07:13.313Z,46179.62
2018-09-23T14:09:18.217Z,46157.36
2018-09-23T14:11:22.939Z,46174.78
2018-09-23T14:13:27.915Z,46184.46
2018-09-23T14:15:32.658Z,46172.84
2018-09-23T14:17:37.547Z,46166.07
2018-09-23T14:19:42.406Z,46174.78
2018-09-23T14:21:47.224Z,46195.10
2018-09-23T14:23:52.167Z,46198.00
2018-09-23T14:25:56.952Z,46167.04
2018-09-23T14:28:01.788Z,46177.68
2018-09-23T14:30:06.791Z,46183.49
2018-09-23T14:32:11.658Z,46174.78
2018-09-23T14:34:16.499Z,46186.39
2018-09-23T14:36:21.556Z,46191.23
2018-09-23T14:38:26.275Z,46168.97
2018-09-23T14:40:31.066Z,46172.84
2018-09-23T14:42:35.996Z,46185.43
2018-09-23T14:44:41.183Z,46178.65
2018-09-23T14:46:46.045Z,46183.49
2018-09-23T14:48:50.834Z,46137.04
2018-09-23T14:50:55.629Z,46178.65
2018-09-23T14:53:00.403Z,46185.43
2018-09-23T14:57:25.425Z,46175.75
2018-09-23T14:59:30.519Z,46182.52
2018-09-23T15:01:35.747Z,46163.17
2018-09-23T15:03:40.888Z,46169.94
2018-09-23T15:05:48.267Z,46158.33
2018-09-23T15:07:53.586Z,46166.07
2018-09-23T15:09:58.817Z,46168.01
2018-09-23T15:12:04.022Z,46166.07
2018-09-23T15:14:09.481Z,46169.94
2018-09-23T15:16:14.885Z,46191.23
2018-09-23T15:18:20.123Z,46167.04
2018-09-23T15:20:25.402Z,46172.84
2018-09-23T15:22:30.790Z,46163.17
2018-09-23T15:24:35.820Z,46164.14
2018-09-23T15:26:40.862Z,46161.23
2018-09-23T15:28:45.853Z,46155.43
2018-09-23T15:30:51.158Z,46172.84
2018-09-23T15:32:56.209Z,46172.84
2018-09-23T15:35:01.287Z,46190.27
2018-09-23T15:37:06.455Z,46152.52
2018-09-23T15:39:11.434Z,46174.78
2018-09-23T15:41:16.442Z,46163.17
2018-09-23T15:43:21.634Z,46168.97
2018-09-23T15:45:26.730Z,46171.87
2018-09-23T15:47:31.822Z,46194.13
2018-09-23T15:49:37.178Z,46173.81
2018-09-23T15:51:42.100Z,46147.68
2018-09-23T15:53:47.363Z,46173.81
2018-09-23T15:55:53.294Z,46181.55
2018-09-23T15:57:58.638Z,46164.14
2018-09-23T16:00:03.668Z,46147.68
2018-09-23T16:02:09.447Z,46170.91
2018-09-23T16:04:14.503Z,46183.49
2018-09-23T16:06:20.169Z,46164.14
2018-09-23T16:08:25.820Z,46162.20
2018-09-23T16:10:31.263Z,46194.13
2018-09-23T16:12:36.463Z,46184.46
2018-09-23T16:14:41.792Z,46164.14
2018-09-23T16:16:46.866Z,46165.10
2018-09-23T16:18:52.416Z,46179.62
2018-09-23T16:20:57.493Z,46168.01
2018-09-23T16:23:02.738Z,46158.33
2018-09-23T16:25:07.810Z,46168.01
2018-09-23T16:27:15.230Z,46161.23
2018-09-23T16:29:20.391Z,46167.04
2018-09-23T16:31:25.516Z,46157.36
2018-09-23T16:33:31.056Z,46185.43
2018-09-23T16:35:37.079Z,46164.14
2018-09-23T16:37:42.152Z,46160.27
2018-09-23T16:39:47.442Z,46161.23
2018-09-23T16:41:52.723Z,46172.84
2018-09-23T16:43:57.740Z,46176.71
2018-09-23T16:46:02.827Z,46121.55
2018-09-23T16:48:08.025Z,46154.46
2018-09-23T16:50:12.981Z,46170.91
2018-09-23T16:52:18.318Z,46169.94
2018-09-23T16:54:23.630Z,46169.94
2018-09-23T16:56:28.673Z,46160.27
2018-09-23T16:58:34.113Z,46166.07
2018-09-23T17:00:41.906Z,46192.20
2018-09-23T17:02:49.660Z,46168.97
2018-09-23T17:04:55.145Z,46154.46
2018-09-23T17:07:00.378Z,46167.04
2018-09-23T17:09:08.288Z,46174.78
2018-09-23T17:11:13.470Z,46155.43
2018-09-23T17:13:19.080Z,46191.23
2018-09-23T17:15:26.008Z,46170.91
2018-09-23T17:17:31.886Z,46161.23
2018-09-23T17:19:37.139Z,46167.04
2018-09-23T17:21:43.020Z,46151.55
2018-09-23T17:23:48.331Z,46196.07
2018-09-23T17:25:53.672Z,46175.75
2018-09-23T17:27:58.817Z,46173.81
2018-09-23T17:30:04.182Z,46149.62
2018-09-23T17:32:09.383Z,46145.75
2018-09-23T17:34:14.597Z,46169.94
2018-09-23T17:36:19.835Z,46166.07
2018-09-23T17:38:25.344Z,46159.30
2018-09-23T17:40:30.495Z,46186.39
2018-09-23T17:42:36.492Z,46175.75
2018-09-23T17:44:41.890Z,46169.94
2018-09-23T17:46:47.774Z,46162.20
2018-09-23T17:48:53.469Z,46171.87
2018-09-23T17:50:58.859Z,46175.75
2018-09-23T17:53:04.469Z,46179.62
2018-09-23T17:55:09.697Z,46158.33
2018-09-23T17:57:15.381Z,46166.07
2018-09-23T17:59:20.684Z,46159.30
2018-09-23T18:01:27.328Z,46187.36
2018-09-23T18:03:32.506Z,46169.94
2018-09-23T18:05:37.823Z,46176.71
2018-09-23T18:07:43.314Z,46178.65
2018-09-23T18:09:54.677Z,46158.33
2018-09-23T18:12:03.557Z,46171.87
2018-09-23T18:14:09.462Z,46173.81
2018-09-23T18:16:19.585Z,46168.01
2018-09-23T18:18:28.460Z,46170.91
2018-09-23T18:20:35.304Z,46157.36
2018-09-23T18:22:41.932Z,46172.84
2018-09-23T18:24:47.200Z,46173.81
2018-09-23T18:26:52.340Z,46150.59
2018-09-23T18:28:58.054Z,46171.87
2018-09-23T18:31:03.391Z,46168.01
2018-09-23T18:33:09.413Z,46176.71
2018-09-23T18:35:15.390Z,46161.23
2018-09-23T18:37:22.139Z,46164.14
2018-09-23T18:39:27.614Z,46174.78
2018-09-23T18:41:33.283Z,46175.75
2018-09-23T18:43:39.585Z,46173.81
2018-09-23T18:45:45.328Z,46174.78
2018-09-23T18:47:52.251Z,46173.81
2018-09-23T18:49:58.074Z,46178.65
2018-09-23T18:52:03.628Z,46164.14
2018-09-23T18:54:14.562Z,46156.39
2018-09-23T18:56:21.856Z,46174.78
2018-09-23T18:58:29.460Z,46172.84
2018-09-23T19:00:35.139Z,46168.97
2018-09-23T19:02:44.060Z,46175.75
2018-09-23T19:04:51.855Z,46172.84
2018-09-23T19:06:59.153Z,46169.94
2018-09-23T19:09:10.381Z,46165.10
2018-09-23T19:11:18.224Z,46173.81
2018-09-23T19:13:28.472Z,46178.65
2018-09-23T19:15:35.906Z,46187.36
2018-09-23T19:17:42.034Z,46166.07
2018-09-23T19:19:52.097Z,46169.94
2018-09-23T19:21:57.277Z,46178.65
2018-09-23T19:24:02.760Z,46165.10
2018-09-23T19:26:08.305Z,46174.78
2018-09-23T19:28:14.789Z,46168.97
2018-09-23T19:30:20.491Z,46161.23
2018-09-23T19:32:26.147Z,46161.23
2018-09-23T19:34:32.093Z,46174.78
2018-09-23T19:36:37.115Z,46161.23
2018-09-23T19:38:45.099Z,46183.49
2018-09-23T19:40:51.003Z,46146.71
2018-09-23T19:42:56.001Z,46150.59
2018-09-23T19:45:01.551Z,46167.04
2018-09-23T19:47:06.774Z,46169.94
2018-09-23T19:49:12.406Z,46180.59
2018-09-23T19:51:21.781Z,46168.97
2018-09-23T19:53:27.240Z,46159.30
2018-09-23T19:55:36.807Z,46160.27
2018-09-23T19:57:41.930Z,46175.75
2018-09-23T19:59:47.530Z,46188.33
2018-09-23T20:01:53.955Z,46161.23
2018-09-23T20:04:02.233Z,46157.36
2018-09-23T20:06:12.176Z,46166.07
2018-09-23T20:08:18.170Z,46160.27
2018-09-23T20:10:27.977Z,46168.01
2018-09-23T20:12:37.377Z,46164.14
2018-09-23T20:14:47.115Z,46170.91
2018-09-23T20:16:55.618Z,46173.81
2018-09-23T20:19:04.808Z,46166.07
2018-09-23T20:21:14.520Z,46172.84
2018-09-23T20:23:21.491Z,46175.75
2018-09-23T20:25:28.598Z,46191.23
2018-09-23T20:27:34.757Z,46171.87
2018-09-23T20:29:40.295Z,46156.39
2018-09-23T20:31:46.041Z,46165.10
2018-09-23T20:33:51.486Z,46185.43
2018-09-23T20:35:57.173Z,46170.91
2018-09-23T20:38:02.152Z,46171.87
2018-09-23T20:40:08.204Z,46172.84
2018-09-23T20:42:14.557Z,46176.71
2018-09-23T20:44:19.694Z,46185.43
2018-09-23T20:46:24.541Z,46174.78
2018-09-23T20:48:29.935Z,46163.17
2018-09-23T20:50:34.897Z,46179.62
2018-09-23T20:52:40.052Z,46150.59
2018-09-23T20:54:45.062Z,46156.39
2018-09-23T20:56:49.911Z,46168.01
2018-09-23T20:58:55.177Z,46160.27
2018-09-23T21:01:00.385Z,46168.01
2018-09-23T21:03:05.305Z,46199.94
2018-09-23T21:05:10.162Z,46188.33
2018-09-23T21:07:15.218Z,46165.10
2018-09-23T21:09:20.283Z,46160.27
2018-09-23T21:11:25.426Z,46167.04
2018-09-23T21:13:30.830Z,46181.55
2018-09-23T21:15:35.961Z,46140.91
2018-09-23T21:17:40.834Z,46176.71
2018-09-23T21:19:45.552Z,46168.97
2018-09-23T21:21:50.298Z,46173.81
2018-09-23T21:23:55.437Z,46174.78
2018-09-23T21:26:00.272Z,46185.43
2018-09-23T21:28:05.378Z,46192.20
2018-09-23T21:30:10.385Z,46168.97
2018-09-23T21:32:16.641Z,46162.20
2018-09-23T21:34:25.093Z,46181.55
2018-09-23T21:36:30.034Z,46170.91
2018-09-23T21:38:35.143Z,46167.04
2018-09-23T21:40:40.828Z,46172.84
2018-09-23T21:42:46.035Z,46170.91
2018-09-23T21:44:50.761Z,46165.10
2018-09-23T21:46:55.596Z,46159.30
2018-09-23T21:49:00.297Z,46183.49
2018-09-23T21:51:05.272Z,46178.65
2018-09-23T21:53:10.193Z,46180.59
2018-09-23T21:55:15.221Z,46173.81
2018-09-23T21:57:20.078Z,46182.52
2018-09-23T21:59:25.219Z,46152.52
2018-09-23T22:01:30.126Z,46174.78
2018-09-23T22:03:35.025Z,46165.10
2018-09-23T22:05:40.350Z,46175.75
2018-09-23T22:07:45.229Z,46166.07
2018-09-23T22:09:50.104Z,46168.97
2018-09-23T22:11:54.928Z,46165.10
2018-09-23T22:13:59.822Z,46172.84
2018-09-23T22:16:04.605Z,46175.75
2018-09-23T22:18:09.306Z,46167.04
2018-09-23T22:20:14.038Z,46173.81
2018-09-23T22:22:18.827Z,46157.36
2018-09-23T22:24:23.546Z,46160.27
2018-09-23T22:26:28.264Z,46176.71
2018-09-23T22:28:34.576Z,46172.84
2018-09-23T22:30:39.557Z,46157.36
2018-09-23T22:32:44.296Z,46176.71
2018-09-23T22:34:49.071Z,46172.84
2018-09-23T22:36:53.857Z,46170.91
2018-09-23T22:38:58.587Z,46166.07
2018-09-23T22:41:03.422Z,46164.14
2018-09-23T22:43:08.580Z,46156.39
2018-09-23T22:45:14.590Z,46163.17
2018-09-23T22:47:19.635Z,46149.62
2018-09-23T22:49:24.445Z,46175.75
2018-09-23T22:51:29.199Z,46172.84
2018-09-23T22:53:34.024Z,46163.17
2018-09-23T22:55:38.851Z,46162.20
2018-09-23T22:57:43.749Z,46173.81
2018-09-23T22:59:48.657Z,46168.01
2018-09-23T23:01:53.435Z,46174.78
2018-09-23T23:03:58.297Z,46146.71
2018-09-23T23:06:03.192Z,46159.30
2018-09-23T23:08:07.921Z,46152.52
2018-09-23T23:10:12.589Z,46182.52
2018-09-23T23:12:17.240Z,46163.17
2018-09-23T23:14:22.045Z,46168.97
2018-09-23T23:16:26.884Z,46170.91
2018-09-23T23:18:31.837Z,46145.75
2018-09-23T23:20:36.768Z,46160.27
2018-09-23T23:22:41.512Z,46153.49
2018-09-23T23:24:46.231Z,46170.91
2018-09-23T23:26:50.922Z,46188.33
2018-09-23T23:28:55.645Z,46173.81
2018-09-23T23:31:00.627Z,46158.33
2018-09-23T23:33:05.289Z,46165.10
2018-09-23T23:35:10.296Z,46159.30
2018-09-23T23:37:15.255Z,46167.04
2018-09-23T23:39:20.058Z,46169.94
2018-09-23T23:41:25.030Z,46172.84
2018-09-23T23:43:29.683Z,46161.23
2018-09-23T23:45:34.438Z,46162.20
2018-09-23T23:47:39.081Z,46149.62
2018-09-23T23:49:43.817Z,46150.59
2018-09-23T23:51:48.443Z,46144.78
2018-09-23T23:53:53.091Z,46138.01
2018-09-23T23:55:57.796Z,46180.59
2018-09-23T23:58:02.576Z,46169.94
